Time;durP1;ratioP1;P1;durP2;ratioP2;P2;SDS_P1;SDS_P2;PMS_P1;PMS_P2;Temp;Humidity;BMP_temperature;BMP_pressure;BME280_temperature;BME280_humidity;BME280_pressure;Samples;Min_cycle;Max_cycle;Signal;HPM_P1;HPM_P2
2024/02/27 00:02:17;;;;;;;13.73;10.30;;;;;;;4.12;100.00;101372.63;5100133;28;20411;-72
2024/02/27 00:05:05;;;;;;;16.38;11.65;;;;;;;4.09;100.00;101378.47;5084753;27;20048;-73
2024/02/27 00:07:53;;;;;;;15.45;11.38;;;;;;;4.12;100.00;101380.72;5133159;27;20043;-73
2024/02/27 00:10:41;;;;;;;17.10;12.88;;;;;;;4.10;100.00;101377.41;5098465;28;20048;-72
2024/02/27 00:13:29;;;;;;;15.93;11.40;;;;;;;4.05;100.00;101385.31;5112994;28;20549;-72
2024/02/27 00:16:18;;;;;;;15.32;11.13;;;;;;;4.06;100.00;101384.25;5083422;28;20048;-72
2024/02/27 00:19:07;;;;;;;15.48;12.18;;;;;;;4.04;100.00;101384.47;5098768;28;20048;-72
2024/02/27 00:21:55;;;;;;;14.63;11.43;;;;;;;4.07;100.00;101388.63;5113025;28;20522;-72
2024/02/27 00:24:43;;;;;;;14.88;11.68;;;;;;;4.09;100.00;101397.34;5097415;28;20036;-72
2024/02/27 00:27:31;;;;;;;15.23;10.25;;;;;;;4.05;100.00;101396.91;5101864;28;20123;-72
2024/02/27 00:30:19;;;;;;;13.95;10.00;;;;;;;4.07;100.00;101385.09;5076949;28;20052;-72
2024/02/27 00:33:07;;;;;;;15.65;12.25;;;;;;;4.10;100.00;101403.56;5106709;28;20076;-72
2024/02/27 00:35:55;;;;;;;15.25;11.18;;;;;;;4.08;100.00;101403.75;5126154;28;20078;-72
2024/02/27 00:38:43;;;;;;;15.15;11.40;;;;;;;4.07;100.00;101412.06;5112858;27;20043;-72
2024/02/27 00:41:31;;;;;;;15.52;11.85;;;;;;;4.09;100.00;101408.13;5120499;27;20614;-72
2024/02/27 00:44:20;;;;;;;14.52;10.68;;;;;;;4.08;100.00;101403.75;5120873;27;20105;-71
2024/02/27 00:47:09;;;;;;;16.33;12.48;;;;;;;4.07;100.00;101404.81;5080638;28;20052;-73
2024/02/27 00:49:57;;;;;;;14.90;11.13;;;;;;;4.07;100.00;101399.41;5077543;28;20117;-72
2024/02/27 00:52:45;;;;;;;17.38;12.23;;;;;;;4.10;100.00;101408.94;5091917;28;20044;-72
2024/02/27 00:55:34;;;;;;;13.98;10.77;;;;;;;4.07;100.00;101407.50;5080042;28;20101;-72
2024/02/27 00:58:23;;;;;;;14.80;10.98;;;;;;;4.05;100.00;101417.66;5111524;28;20052;-73
2024/02/27 01:01:11;;;;;;;14.15;10.65;;;;;;;4.08;100.00;101416.41;5097618;28;20170;-72
2024/02/27 01:03:59;;;;;;;15.10;10.80;;;;;;;4.09;100.00;101416.22;5112378;28;20040;-72
2024/02/27 01:06:47;;;;;;;15.50;11.57;;;;;;;4.10;100.00;101406.25;5111337;28;20430;-72
2024/02/27 01:09:36;;;;;;;17.33;12.82;;;;;;;4.06;100.00;101413.91;5112182;28;20050;-72
2024/02/27 01:12:24;;;;;;;17.08;12.35;;;;;;;4.08;100.00;101411.84;5111730;28;20126;-72
2024/02/27 01:15:12;;;;;;;15.32;11.52;;;;;;;4.06;100.00;101408.53;5112931;28;20058;-71
2024/02/27 01:18:00;;;;;;;15.20;11.40;;;;;;;4.08;100.00;101416.41;5111890;28;20459;-73
2024/02/27 01:20:49;;;;;;;15.50;11.95;;;;;;;4.03;100.00;101414.34;5112532;28;20044;-72
2024/02/27 01:23:37;;;;;;;15.88;12.05;;;;;;;4.00;100.00;101420.97;5097409;28;20055;-72
2024/02/27 01:26:25;;;;;;;17.33;12.75;;;;;;;3.99;100.00;101423.88;5097578;28;20085;-72
2024/02/27 01:29:13;;;;;;;12.48;9.52;;;;;;;4.00;100.00;101428.25;5097867;28;20103;-73
2024/02/27 01:32:01;;;;;;;15.65;11.35;;;;;;;3.99;100.00;101427.44;5073011;28;20185;-72
2024/02/27 01:34:49;;;;;;;15.85;11.95;;;;;;;3.97;100.00;101432.19;5112390;28;20050;-72
2024/02/27 01:37:38;;;;;;;15.88;11.77;;;;;;;3.99;100.00;101434.66;5113149;28;20051;-73
2024/02/27 01:40:26;;;;;;;17.13;12.93;;;;;;;3.98;100.00;101430.31;5099407;28;20040;-72
2024/02/27 01:43:22;;;;;;;14.77;11.80;;;;;;;3.95;100.00;101436.16;5115990;28;20124;-71
2024/02/27 01:46:16;;;;;;;15.48;12.40;;;;;;;3.90;100.00;101431.38;5114393;28;20101;-72
2024/02/27 01:49:04;;;;;;;18.08;12.13;;;;;;;3.87;100.00;101425.56;5115759;28;20187;-72
2024/02/27 01:51:53;;;;;;;17.70;12.30;;;;;;;3.91;100.00;101427.63;5115423;28;20423;-72
2024/02/27 01:54:42;;;;;;;16.48;13.00;;;;;;;3.95;100.00;101433.44;5099779;28;20043;-72
2024/02/27 01:57:30;;;;;;;17.30;12.63;;;;;;;3.94;100.00;101432.59;5116469;28;20050;-72
2024/02/27 02:00:18;;;;;;;16.35;12.77;;;;;;;3.83;100.00;101446.72;5116316;28;20050;-73
2024/02/27 02:03:07;;;;;;;17.08;12.80;;;;;;;3.80;100.00;101447.13;5102134;28;20063;-72
2024/02/27 02:05:58;;;;;;;17.58;12.55;;;;;;;3.81;100.00;101446.91;5107851;27;20044;-71
2024/02/27 02:08:46;;;;;;;16.45;11.85;;;;;;;3.83;100.00;101444.03;5096573;27;20211;-72
2024/02/27 02:11:35;;;;;;;18.35;13.10;;;;;;;3.79;100.00;101445.47;5136720;27;20406;-71
2024/02/27 02:14:23;;;;;;;17.15;12.77;;;;;;;3.80;100.00;101453.34;5122248;27;20484;-72
2024/02/27 02:17:11;;;;;;;15.65;12.25;;;;;;;3.78;100.00;101450.03;5071655;28;20508;-72
2024/02/27 02:19:59;;;;;;;14.13;11.45;;;;;;;3.82;100.00;101455.81;5081050;28;20412;-72
2024/02/27 02:22:47;;;;;;;14.85;11.43;;;;;;;3.81;100.00;101455.00;5082330;28;20108;-72
2024/02/27 02:25:37;;;;;;;16.55;12.88;;;;;;;3.89;100.00;101472.84;5081994;28;20046;-72
2024/02/27 02:28:25;;;;;;;16.42;11.77;;;;;;;3.91;100.00;101475.31;5085244;27;20052;-72
2024/02/27 02:31:13;;;;;;;17.40;13.32;;;;;;;3.84;100.00;101478.84;5096011;28;20059;-75
2024/02/27 02:34:01;;;;;;;15.68;12.32;;;;;;;3.83;100.00;101479.88;5077388;28;20058;-73
2024/02/27 02:36:49;;;;;;;18.48;13.30;;;;;;;3.83;100.00;101482.59;5077376;28;20173;-72
2024/02/27 02:39:37;;;;;;;15.77;12.80;;;;;;;3.85;100.00;101479.69;5075815;28;20165;-72
2024/02/27 02:42:25;;;;;;;17.20;12.55;;;;;;;3.83;100.00;101489.84;5071021;28;20051;-74
2024/02/27 02:45:14;;;;;;;15.80;12.15;;;;;;;3.81;100.00;101491.91;5060409;28;20044;-71
2024/02/27 02:48:02;;;;;;;15.65;12.55;;;;;;;3.78;100.00;101487.78;5076622;28;20048;-72
2024/02/27 02:50:51;;;;;;;15.95;12.18;;;;;;;3.79;100.00;101489.41;5075363;28;20177;-72
2024/02/27 02:53:39;;;;;;;15.50;12.63;;;;;;;3.80;100.00;101496.50;5095631;28;20420;-72
2024/02/27 02:56:28;;;;;;;18.83;13.15;;;;;;;3.79;100.00;101502.91;5106371;28;20415;-72
2024/02/27 02:59:16;;;;;;;18.00;13.40;;;;;;;3.75;100.00;101501.66;5086994;28;20055;-73
2024/02/27 03:02:04;;;;;;;17.48;12.93;;;;;;;3.73;100.00;101505.56;5081216;28;20048;-72
2024/02/27 03:04:52;;;;;;;18.00;12.77;;;;;;;3.67;100.00;101509.09;5080581;28;20044;-72
2024/02/27 03:07:41;;;;;;;17.17;12.73;;;;;;;3.70;100.00;101503.31;5081524;28;20056;-69
2024/02/27 03:10:29;;;;;;;16.90;13.75;;;;;;;3.67;100.00;101507.25;5059847;28;20103;-71
2024/02/27 03:13:17;;;;;;;16.80;12.75;;;;;;;3.70;100.00;101506.00;5081964;28;20040;-71
2024/02/27 03:16:07;;;;;;;16.98;13.43;;;;;;;3.71;100.00;101507.69;5096208;28;20073;-72
2024/02/27 03:18:55;;;;;;;18.42;13.95;;;;;;;3.71;100.00;101499.59;5081404;28;20044;-72
2024/02/27 03:21:43;;;;;;;17.40;13.23;;;;;;;3.67;100.00;101495.63;5094720;28;20511;-72
2024/02/27 03:24:32;;;;;;;16.65;11.88;;;;;;;3.68;100.00;101498.13;5079903;28;20063;-71
2024/02/27 03:27:20;;;;;;;16.00;12.15;;;;;;;3.68;100.00;101500.84;5096333;28;20076;-72
2024/02/27 03:30:11;;;;;;;18.30;13.23;;;;;;;3.69;100.00;101499.78;5069371;28;20058;-72
2024/02/27 03:32:59;;;;;;;17.20;13.00;;;;;;;3.64;100.00;101496.88;5095469;28;20501;-72
2024/02/27 03:35:47;;;;;;;16.30;13.10;;;;;;;3.59;100.00;101499.38;5087595;28;20060;-69
2024/02/27 03:38:40;;;;;;;18.55;13.60;;;;;;;3.53;100.00;101502.84;5092664;28;20089;-71
2024/02/27 03:41:28;;;;;;;18.10;13.60;;;;;;;3.57;100.00;101496.03;5074076;28;20052;-73
2024/02/27 03:44:16;;;;;;;17.63;13.10;;;;;;;3.52;100.00;101504.72;5112335;28;20048;-70
2024/02/27 03:47:04;;;;;;;19.48;15.05;;;;;;;3.52;100.00;101502.03;5071137;28;20040;-69
2024/02/27 03:49:52;;;;;;;18.92;13.60;;;;;;;3.49;100.00;101493.53;5066610;28;20052;-66
2024/02/27 03:52:42;;;;;;;16.88;13.02;;;;;;;3.52;100.00;101487.75;5084955;28;20071;-66
2024/02/27 03:55:30;;;;;;;16.85;13.23;;;;;;;3.49;100.00;101488.13;5096737;28;20048;-70
2024/02/27 03:58:18;;;;;;;17.88;13.48;;;;;;;3.40;100.00;101488.34;5071140;28;20051;-71
2024/02/27 04:01:06;;;;;;;16.30;12.23;;;;;;;3.36;100.00;101484.38;5064002;28;20045;-71
2024/02/27 04:03:55;;;;;;;18.48;13.63;;;;;;;3.36;100.00;101488.94;5045161;28;20095;-72
2024/02/27 04:06:43;;;;;;;18.35;13.57;;;;;;;3.32;100.00;101488.53;5087085;28;20048;-72
2024/02/27 04:09:31;;;;;;;17.73;13.98;;;;;;;3.27;100.00;101501.78;5102533;28;20048;-72
2024/02/27 04:12:19;;;;;;;18.27;13.90;;;;;;;3.24;100.00;101517.50;5070800;28;20093;-72
2024/02/27 04:15:08;;;;;;;17.00;13.75;;;;;;;3.20;100.00;101519.78;5079379;28;20054;-71
2024/02/27 04:17:57;;;;;;;18.58;13.55;;;;;;;3.20;100.00;101517.09;5094689;28;20048;-72
2024/02/27 04:20:45;;;;;;;18.42;13.68;;;;;;;3.20;100.00;101511.72;5075431;28;20073;-72
2024/02/27 04:23:33;;;;;;;18.50;13.50;;;;;;;3.19;100.00;101520.81;5086061;28;20123;-71
2024/02/27 04:26:21;;;;;;;17.23;13.50;;;;;;;3.17;100.00;101522.84;5092792;28;20051;-71
2024/02/27 04:29:09;;;;;;;16.85;12.52;;;;;;;3.12;100.00;101525.31;5092816;28;20523;-72
2024/02/27 04:31:57;;;;;;;20.25;13.38;;;;;;;3.13;100.00;101518.94;5104759;27;20059;-71
2024/02/27 04:34:46;;;;;;;17.90;13.23;;;;;;;3.08;100.00;101527.59;5079388;28;20520;-72
2024/02/27 04:37:34;;;;;;;17.35;13.10;;;;;;;3.00;100.00;101527.75;5068140;28;20116;-72
2024/02/27 04:40:22;;;;;;;16.38;11.75;;;;;;;3.04;100.00;101520.13;5117261;27;20126;-72
2024/02/27 04:43:10;;;;;;;16.77;12.15;;;;;;;2.99;100.00;101523.41;5094773;28;20081;-71
2024/02/27 04:45:58;;;;;;;17.17;12.88;;;;;;;2.95;100.00;101536.44;5094523;28;20509;-72
2024/02/27 04:48:45;;;;;;;17.90;13.05;;;;;;;2.92;100.00;101530.63;5078789;28;20044;-71
2024/02/27 04:51:34;;;;;;;17.90;13.57;;;;;;;2.85;100.00;101535.97;5092949;28;20051;-72
2024/02/27 04:54:22;;;;;;;16.13;12.80;;;;;;;2.86;100.00;101534.97;5079309;28;20120;-72
2024/02/27 04:57:10;;;;;;;16.95;12.68;;;;;;;2.87;100.00;101538.47;5093480;28;20404;-72
2024/02/27 04:59:58;;;;;;;17.75;13.43;;;;;;;2.84;100.00;101549.63;5080579;28;20397;-71
2024/02/27 05:02:46;;;;;;;16.95;13.15;;;;;;;2.83;100.00;101543.41;5097343;28;20047;-71
2024/02/27 05:05:37;;;;;;;17.83;12.52;;;;;;;2.80;100.00;101554.59;5117763;28;20031;-72
2024/02/27 05:08:25;;;;;;;18.02;13.25;;;;;;;2.78;100.00;101557.47;5129129;28;20073;-72
2024/02/27 05:11:13;;;;;;;17.92;13.30;;;;;;;2.81;100.00;101567.00;5087479;28;20115;-72
2024/02/27 05:14:03;;;;;;;16.60;12.45;;;;;;;2.77;100.00;101571.13;5079390;28;20181;-72
2024/02/27 05:16:51;;;;;;;18.30;13.70;;;;;;;2.66;100.00;101569.00;5083157;28;20533;-72
2024/02/27 05:19:39;;;;;;;18.52;12.48;;;;;;;2.72;100.00;101570.91;5082910;28;20040;-72
2024/02/27 05:22:27;;;;;;;18.10;12.85;;;;;;;2.74;100.00;101577.75;5107432;27;20051;-70
2024/02/27 05:25:15;;;;;;;17.13;12.82;;;;;;;2.77;100.00;101582.72;5106723;27;20179;-71
2024/02/27 05:28:04;;;;;;;17.30;12.98;;;;;;;2.77;100.00;101593.50;5107559;27;20043;-71
2024/02/27 05:30:55;;;;;;;17.67;12.80;;;;;;;2.74;100.00;101584.97;5116834;28;20040;-71
2024/02/27 05:33:44;;;;;;;18.90;12.80;;;;;;;2.72;100.00;101584.34;5102322;28;20043;-71
2024/02/27 05:36:33;;;;;;;17.40;13.38;;;;;;;2.66;100.00;101591.34;5101217;28;20051;-71
2024/02/27 05:39:21;;;;;;;17.20;12.75;;;;;;;2.63;100.00;101598.97;5080835;28;20044;-70
2024/02/27 05:42:09;;;;;;;17.40;13.63;;;;;;;2.69;100.00;101593.63;5074392;28;20048;-71
2024/02/27 05:44:57;;;;;;;17.70;14.07;;;;;;;2.69;100.00;101600.88;5094865;28;20050;-69
2024/02/27 05:47:46;;;;;;;15.27;11.40;;;;;;;2.62;100.00;101602.69;5100690;28;20052;-70
2024/02/27 05:50:34;;;;;;;16.20;11.48;;;;;;;2.62;100.00;101602.69;5115883;28;20051;-70
2024/02/27 05:53:22;;;;;;;18.60;12.60;;;;;;;2.61;100.00;101604.53;5115127;28;20040;-70
2024/02/27 05:56:10;;;;;;;17.98;13.80;;;;;;;2.62;100.00;101608.06;5100601;28;20047;-70
2024/02/27 05:58:58;;;;;;;20.05;14.48;;;;;;;2.56;100.00;101618.59;5115606;28;20054;-70
2024/02/27 06:01:46;;;;;;;18.13;13.40;;;;;;;2.53;100.00;101623.53;5095741;28;20040;-71
2024/02/27 06:04:34;;;;;;;17.02;13.45;;;;;;;2.56;100.00;101629.34;5066965;28;20381;-71
2024/02/27 06:07:22;;;;;;;18.95;14.30;;;;;;;2.58;100.00;101628.34;5098897;28;20122;-67
2024/02/27 06:10:10;;;;;;;18.40;13.80;;;;;;;2.60;100.00;101639.72;5101304;27;20062;-68
2024/02/27 06:12:58;;;;;;;19.63;14.10;;;;;;;2.59;100.00;101640.75;5106087;27;20126;-67
2024/02/27 06:15:47;;;;;;;19.92;14.13;;;;;;;2.53;100.00;101645.88;5103529;27;20093;-67
2024/02/27 06:18:37;;;;;;;17.42;13.55;;;;;;;2.53;100.00;101645.06;5093732;28;20043;-68
2024/02/27 06:24:31;;;;;;;19.23;14.95;;;;;;;2.51;100.00;101650.63;5094829;28;20050;-68
2024/02/27 06:27:19;;;;;;;19.52;14.68;;;;;;;2.49;100.00;101660.75;5088934;28;20055;-68
2024/02/27 06:30:08;;;;;;;19.73;14.57;;;;;;;2.50;100.00;101661.56;5115977;27;20575;-68
2024/02/27 06:32:56;;;;;;;18.75;13.65;;;;;;;2.53;100.00;101663.88;5080348;28;20189;-67
2024/02/27 06:35:45;;;;;;;18.88;14.05;;;;;;;2.50;100.00;101662.41;5106620;28;20052;-68
2024/02/27 06:38:33;;;;;;;21.27;14.27;;;;;;;2.59;100.00;101670.34;5112454;28;20050;-68
2024/02/27 06:41:22;;;;;;;20.85;14.13;;;;;;;2.69;100.00;101673.53;5099450;28;20104;-68
2024/02/27 06:44:12;;;;;;;18.40;13.68;;;;;;;2.77;100.00;101673.41;5120440;28;20052;-68
2024/02/27 06:47:09;;;;;;;19.45;14.05;;;;;;;2.83;100.00;101683.34;5100093;28;20169;-68
2024/02/27 06:49:58;;;;;;;19.15;14.63;;;;;;;2.76;100.00;101682.47;5084681;28;20402;-68
2024/02/27 06:52:47;;;;;;;19.35;14.77;;;;;;;2.73;100.00;101677.50;5093346;28;20407;-69
2024/02/27 06:55:35;;;;;;;20.63;14.60;;;;;;;2.78;100.00;101680.44;5113301;28;20154;-69
2024/02/27 06:58:23;;;;;;;20.08;15.23;;;;;;;2.75;100.00;101675.44;5098379;28;20051;-69
2024/02/27 07:01:11;;;;;;;20.40;14.93;;;;;;;2.69;100.00;101676.22;5113239;28;20051;-69
2024/02/27 07:03:59;;;;;;;21.92;15.15;;;;;;;2.72;100.00;101676.66;4393949;28;10000829;-69
2024/02/27 07:06:48;;;;;;;18.02;14.10;;;;;;;2.76;100.00;101680.59;5089872;28;20043;-68
2024/02/27 07:09:36;;;;;;;18.67;14.65;;;;;;;2.82;100.00;101684.41;5109709;28;20515;-69
2024/02/27 07:12:27;;;;;;;20.42;15.00;;;;;;;2.84;100.00;101673.41;5107755;28;20035;-67
2024/02/27 07:15:16;;;;;;;18.48;14.25;;;;;;;2.85;100.00;101673.22;5081081;28;20047;-68
2024/02/27 07:18:04;;;;;;;21.00;15.23;;;;;;;2.83;100.00;101677.97;5109940;28;20046;-69
2024/02/27 07:20:55;;;;;;;19.73;14.48;;;;;;;2.87;100.00;101678.44;5095585;28;20048;-68
2024/02/27 07:23:43;;;;;;;18.98;14.50;;;;;;;2.87;100.00;101679.25;5095574;28;20696;-68
2024/02/27 07:26:31;;;;;;;19.27;14.63;;;;;;;2.84;100.00;101671.59;5109402;28;20638;-68
2024/02/27 07:29:19;;;;;;;18.05;13.52;;;;;;;2.80;100.00;101673.00;5093851;27;20576;-67
2024/02/27 07:32:07;;;;;;;22.58;15.05;;;;;;;2.76;100.00;101682.47;5075480;28;20084;-68
2024/02/27 07:34:55;;;;;;;18.10;14.80;;;;;;;2.74;100.00;101676.44;5075341;28;20127;-68
2024/02/27 07:37:43;;;;;;;19.20;14.45;;;;;;;2.73;100.00;101682.88;5073781;28;20405;-70
2024/02/27 07:40:31;;;;;;;18.95;14.68;;;;;;;2.74;100.00;101689.91;5106956;27;20048;-68
2024/02/27 07:43:19;;;;;;;19.33;14.65;;;;;;;2.70;100.00;101691.34;5050448;28;20356;-68
2024/02/27 07:46:07;;;;;;;17.90;14.00;;;;;;;2.77;100.00;101694.94;5075771;28;20048;-68
2024/02/27 07:48:55;;;;;;;19.05;14.20;;;;;;;2.81;100.00;101695.34;5063301;27;20144;-67
2024/02/27 07:51:44;;;;;;;22.25;15.02;;;;;;;2.84;100.00;101690.44;5080763;28;20067;-67
2024/02/27 07:54:32;;;;;;;18.75;13.88;;;;;;;2.85;100.00;101697.47;5104039;28;20046;-67
2024/02/27 07:57:24;;;;;;;19.90;13.93;;;;;;;3.02;100.00;101702.56;5120904;28;20085;-66
2024/02/27 08:00:13;;;;;;;17.45;13.38;;;;;;;3.04;100.00;101712.09;5143127;27;20047;-64
2024/02/27 08:03:03;;;;;;;17.67;14.20;;;;;;;3.01;100.00;101703.56;5115563;28;20043;-66
2024/02/27 08:05:51;;;;;;;20.25;14.80;;;;;;;2.97;100.00;101698.59;5106179;28;20047;-66
2024/02/27 08:08:39;;;;;;;19.70;14.20;;;;;;;2.89;100.00;101698.75;5114449;28;20506;-66
2024/02/27 08:11:28;;;;;;;17.58;12.95;;;;;;;2.88;100.00;101698.94;5129280;28;20114;-63
2024/02/27 08:14:17;;;;;;;21.73;12.65;;;;;;;2.92;100.00;101702.91;5134323;28;20050;-61
2024/02/27 08:17:05;;;;;;;18.48;13.38;;;;;;;2.99;100.00;101703.78;5117644;28;20031;-67
2024/02/27 08:19:53;;;;;;;18.75;13.85;;;;;;;3.01;100.00;101717.03;5114519;28;20046;-68
2024/02/27 08:22:41;;;;;;;20.30;14.40;;;;;;;3.06;100.00;101722.69;5113980;28;20508;-67
2024/02/27 08:25:30;;;;;;;18.45;14.05;;;;;;;3.05;100.00;101723.69;5076724;28;20052;-69
2024/02/27 08:28:20;;;;;;;20.38;14.77;;;;;;;3.11;100.00;101733.69;5106148;28;20047;-69
2024/02/27 08:31:08;;;;;;;17.45;13.63;;;;;;;3.15;100.00;101730.41;5112039;28;20064;-69
2024/02/27 08:33:56;;;;;;;17.55;13.90;;;;;;;3.13;100.00;101732.47;5093268;28;20044;-69
2024/02/27 08:36:45;;;;;;;19.90;14.40;;;;;;;3.16;100.00;101736.63;5079188;28;20127;-66
2024/02/27 08:39:33;;;;;;;18.20;13.93;;;;;;;3.19;100.00;101747.00;5103819;28;20051;-68
2024/02/27 08:42:21;;;;;;;18.13;14.02;;;;;;;3.26;100.00;101747.06;5112356;28;20056;-68
2024/02/27 08:45:10;;;;;;;21.80;15.55;;;;;;;3.28;100.00;101755.78;5112586;28;20051;-67
2024/02/27 08:47:59;;;;;;;19.70;14.15;;;;;;;3.32;100.00;101749.78;5099134;28;20049;-69
2024/02/27 08:50:47;;;;;;;17.23;13.05;;;;;;;3.35;100.00;101749.41;5098163;28;20055;-69
2024/02/27 08:53:36;;;;;;;19.50;14.50;;;;;;;3.34;100.00;101752.28;5113305;28;20051;-68
2024/02/27 08:56:24;;;;;;;18.20;12.43;;;;;;;3.40;100.00;101757.72;5098452;28;20052;-69
2024/02/27 08:59:12;;;;;;;18.10;12.65;;;;;;;3.44;100.00;101754.63;5077954;28;20052;-69
2024/02/27 09:02:00;;;;;;;16.35;12.27;;;;;;;3.51;100.00;101775.19;5076901;28;20066;-69
2024/02/27 09:04:48;;;;;;;18.92;13.13;;;;;;;3.57;100.00;101773.56;5087109;28;20046;-69
2024/02/27 09:07:42;;;;;;;17.20;12.40;;;;;;;3.62;100.00;101776.50;5081988;28;20078;-69
2024/02/27 09:10:31;;;;;;;17.45;11.93;;;;;;;3.69;100.00;101774.69;5107940;28;20546;-69
2024/02/27 09:13:19;;;;;;;17.45;13.15;;;;;;;3.74;100.00;101774.91;5131515;28;20058;-69
2024/02/27 09:16:07;;;;;;;17.13;12.82;;;;;;;3.76;100.00;101775.53;5103329;28;20138;-69
2024/02/27 09:18:55;;;;;;;16.98;12.68;;;;;;;3.83;100.00;101773.72;5089391;28;20039;-69
2024/02/27 09:21:43;;;;;;;17.02;12.50;;;;;;;3.83;100.00;101779.09;5108300;28;20088;-69
2024/02/27 09:24:31;;;;;;;18.48;12.65;;;;;;;3.85;100.00;101770.84;5117874;28;20099;-68
2024/02/27 09:27:23;;;;;;;16.20;13.00;;;;;;;3.85;100.00;101773.53;5132566;28;20049;-69
2024/02/27 09:30:11;;;;;;;17.08;13.07;;;;;;;3.87;100.00;101781.41;5113550;28;20168;-69
2024/02/27 09:33:00;;;;;;;17.92;12.88;;;;;;;3.87;100.00;101776.00;5065766;28;20055;-68
2024/02/27 09:35:49;;;;;;;17.15;13.57;;;;;;;3.85;100.00;101778.91;5105964;28;20066;-68
2024/02/27 09:38:37;;;;;;;16.95;12.85;;;;;;;3.79;100.00;101774.31;5097369;28;20040;-70
2024/02/27 09:41:33;;;;;;;18.98;13.98;;;;;;;3.75;100.00;101779.28;5110582;28;20454;-69
2024/02/27 09:44:21;;;;;;;23.27;14.32;;;;;;;3.78;100.00;101778.88;5081059;28;20044;-69
2024/02/27 09:47:12;;;;;;;16.95;13.73;;;;;;;3.80;100.00;101773.25;5074296;28;20039;-69
2024/02/27 09:50:00;;;;;;;17.33;12.32;;;;;;;3.85;100.00;101781.63;5117149;28;20587;-67
2024/02/27 09:52:50;;;;;;;19.30;12.77;;;;;;;3.89;100.00;101784.72;5089732;28;20044;-68
2024/02/27 09:55:39;;;;;;;17.02;10.90;;;;;;;3.91;100.00;101788.06;5121043;28;20048;-69
2024/02/27 09:58:28;;;;;;;16.10;12.23;;;;;;;3.91;100.00;101788.06;5103242;28;20127;-69
2024/02/27 10:01:20;;;;;;;17.73;12.73;;;;;;;3.97;100.00;101781.84;5112286;28;20522;-69
2024/02/27 10:04:09;;;;;;;16.25;11.52;;;;;;;4.01;100.00;101769.63;5101752;28;20048;-69
2024/02/27 10:06:58;;;;;;;15.85;11.32;;;;;;;4.09;100.00;101774.03;5086537;28;20518;-69
2024/02/27 10:09:49;;;;;;;16.67;12.18;;;;;;;4.11;100.00;101777.34;5099848;28;20051;-69
2024/02/27 10:12:37;;;;;;;15.55;10.23;;;;;;;4.09;100.00;101777.56;5085276;28;20162;-69
2024/02/27 10:15:25;;;;;;;16.00;11.50;;;;;;;4.15;100.00;101768.66;5100137;28;20052;-69
2024/02/27 10:18:13;;;;;;;14.80;10.23;;;;;;;4.22;100.00;101774.09;5113822;28;20055;-69
2024/02/27 10:21:04;;;;;;;16.88;11.80;;;;;;;4.18;100.00;101776.34;5086830;28;20130;-68
2024/02/27 10:23:52;;;;;;;16.65;12.57;;;;;;;4.19;100.00;101782.59;5099480;28;20071;-68
2024/02/27 10:26:52;;;;;;;17.02;11.32;;;;;;;4.23;100.00;101781.97;5113811;28;20040;-69
2024/02/27 10:29:40;;;;;;;15.68;11.15;;;;;;;4.27;100.00;101791.31;5086660;28;20491;-69
2024/02/27 10:32:33;;;;;;;15.70;11.45;;;;;;;4.23;100.00;101787.38;5080298;28;20405;-69
2024/02/27 10:35:22;;;;;;;17.20;11.57;;;;;;;4.24;100.00;101793.59;5066073;28;20048;-68
2024/02/27 10:38:19;;;;;;;18.15;10.30;;;;;;;4.24;100.00;101801.69;5082442;28;20055;-68
2024/02/27 10:41:07;;;;;;;17.05;11.55;;;;;;;4.22;100.00;101796.50;5114211;28;20517;-69
2024/02/27 10:43:55;;;;;;;24.08;11.60;;;;;;;4.22;100.00;101799.19;5099233;28;20047;-69
2024/02/27 10:46:55;;;;;;;14.88;11.52;;;;;;;4.08;100.00;101804.72;5061457;28;20058;-68
2024/02/27 10:49:43;;;;;;;17.17;11.23;;;;;;;4.06;100.00;101807.63;5072127;28;20047;-68
2024/02/27 10:52:36;;;;;;;14.77;11.57;;;;;;;4.05;100.00;101812.19;5058447;28;20435;-68
2024/02/27 10:55:24;;;;;;;16.30;12.63;;;;;;;4.05;100.00;101805.97;5098303;28;20376;-69
2024/02/27 10:58:12;;;;;;;15.45;12.00;;;;;;;4.10;100.00;101811.59;5084931;28;20047;-69
2024/02/27 11:01:00;;;;;;;16.27;12.80;;;;;;;4.23;100.00;101808.97;5099622;28;20079;-67
2024/02/27 11:03:52;;;;;;;17.25;13.05;;;;;;;4.20;100.00;101809.34;5113858;28;20047;-69
2024/02/27 11:06:41;;;;;;;17.42;12.25;;;;;;;4.13;100.00;101813.88;5099148;28;20526;-69
2024/02/27 11:09:30;;;;;;;17.10;12.93;;;;;;;4.07;100.00;101811.16;5105855;28;20043;-68
2024/02/27 11:12:20;;;;;;;17.05;11.98;;;;;;;4.02;100.00;101800.97;5075119;28;20044;-68
2024/02/27 11:15:10;;;;;;;15.73;11.75;;;;;;;4.13;100.00;101792.28;5083160;28;20082;-68
2024/02/27 11:18:05;;;;;;;16.20;12.48;;;;;;;4.03;100.00;101794.53;5099554;28;20043;-68
2024/02/27 11:20:54;;;;;;;16.67;12.15;;;;;;;4.04;100.00;101788.97;5089216;28;20129;-68
2024/02/27 11:23:42;;;;;;;19.65;12.40;;;;;;;4.13;100.00;101796.88;5092610;28;20044;-69
2024/02/27 11:26:30;;;;;;;13.60;10.55;;;;;;;4.21;100.00;101792.13;5093493;28;20134;-67
2024/02/27 11:29:22;;;;;;;15.30;11.43;;;;;;;4.34;100.00;101793.22;5085615;28;20504;-69
2024/02/27 11:32:10;;;;;;;16.85;12.70;;;;;;;4.48;100.00;101795.75;4382290;28;10000701;-68
2024/02/27 11:34:58;;;;;;;15.80;11.15;;;;;;;4.45;100.00;101790.75;5066345;28;20051;-69
2024/02/27 11:37:49;;;;;;;14.45;10.77;;;;;;;4.38;100.00;101789.91;5066930;28;20056;-68
2024/02/27 11:40:48;;;;;;;17.63;11.93;;;;;;;4.45;100.00;101795.34;5090796;28;20040;-68
2024/02/27 11:43:37;;;;;;;21.40;13.15;;;;;;;4.50;100.00;101803.66;5073948;28;20044;-68
2024/02/27 11:46:30;;;;;;;17.10;11.15;;;;;;;4.41;100.00;101794.91;5096234;27;20066;-69
2024/02/27 11:49:40;;;;;;;16.73;11.82;;;;;;;4.45;100.00;101792.63;5127691;27;20047;-69
2024/02/27 11:52:33;;;;;;;17.00;11.60;;;;;;;4.42;100.00;101791.16;5110684;28;20039;-68
2024/02/27 11:55:22;;;;;;;16.23;12.10;;;;;;;4.47;100.00;101779.75;5094743;28;20477;-69
2024/02/27 11:58:11;;;;;;;15.02;11.57;;;;;;;4.48;100.00;101778.72;5109897;27;20557;-69
2024/02/27 12:00:59;;;;;;;17.92;11.93;;;;;;;4.52;100.00;101777.25;5092338;28;20051;-69
2024/02/27 12:03:48;;;;;;;15.93;11.10;;;;;;;4.61;100.00;101765.25;5104348;28;20086;-70
2024/02/27 12:06:36;;;;;;;14.00;10.90;;;;;;;4.69;100.00;101769.66;5094796;28;20146;-69
2024/02/27 12:09:25;;;;;;;16.60;10.82;;;;;;;4.70;100.00;101755.09;5095014;28;20070;-68
2024/02/27 12:12:13;;;;;;;15.80;11.63;;;;;;;4.73;100.00;101753.84;5081944;28;20511;-69
2024/02/27 12:15:02;;;;;;;15.25;11.40;;;;;;;4.79;100.00;101753.03;5090666;28;20056;-69
2024/02/27 12:17:51;;;;;;;13.90;10.48;;;;;;;4.83;100.00;101751.56;5078821;28;20498;-69
2024/02/27 12:20:39;;;;;;;15.40;11.70;;;;;;;4.91;100.00;101751.38;5090492;28;20040;-66
2024/02/27 12:23:30;;;;;;;14.95;11.07;;;;;;;4.89;100.00;101739.94;5094261;28;20159;-69
2024/02/27 12:26:18;;;;;;;15.50;10.63;;;;;;;4.91;100.00;101741.41;5098149;28;20059;-69
2024/02/27 12:29:07;;;;;;;15.88;11.07;;;;;;;4.95;100.00;101736.41;5098252;28;20056;-68
2024/02/27 12:31:54;;;;;;;19.45;11.95;;;;;;;5.00;100.00;101738.47;5115305;28;20056;-66
2024/02/27 12:34:42;;;;;;;14.75;11.32;;;;;;;5.01;100.00;101727.47;5094603;28;20062;-69
2024/02/27 12:37:47;;;;;;;16.38;12.23;;;;;;;4.97;100.00;101723.53;5096909;28;20109;-70
2024/02/27 12:40:36;;;;;;;16.88;12.25;;;;;;;4.93;100.00;101721.44;5068895;28;20047;-69
2024/02/27 12:43:24;;;;;;;15.30;11.18;;;;;;;4.97;100.00;101720.81;5102852;28;20052;-69
2024/02/27 12:46:16;;;;;;;16.95;12.98;;;;;;;5.00;100.00;101725.81;5095305;28;20076;-68
2024/02/27 12:49:04;;;;;;;16.85;13.40;;;;;;;5.03;100.00;101727.28;5112104;27;20127;-69
2024/02/27 12:51:52;;;;;;;17.00;14.20;;;;;;;5.02;100.00;101726.44;5069980;28;20126;-65